Time;durP1;ratioP1;P1;durP2;ratioP2;P2;SDS_P1;SDS_P2;PMS_P1;PMS_P2;Temp;Humidity;BMP_temperature;BMP_pressure;BME280_temperature;BME280_humidity;BME280_pressure;Samples;Min_cycle;Max_cycle;Signal;HPM_P1;HPM_P2
2024/02/03 00:00:31;;;;;;;2.60;1.92;;;;;;;;;;5924605;28;20041;-77
2024/02/03 00:03:22;;;;;;;4.43;3.03;;;;;;;;;;5908739;28;20040;-80
2024/02/03 00:06:13;;;;;;;7.03;3.33;;;;;;;;;;5924353;28;20415;-77
2024/02/03 00:09:07;;;;;;;8.35;4.18;;;;;;;;;;5908012;28;20051;-78
2024/02/03 00:11:58;;;;;;;3.72;3.20;;;;;;;;;;5924983;28;20051;-78
2024/02/03 00:14:49;;;;;;;4.50;4.05;;;;;;;;;;5924430;28;20044;-77
2024/02/03 00:17:40;;;;;;;5.50;3.33;;;;;;;;;;5907377;28;20045;-77
2024/02/03 00:20:31;;;;;;;3.63;3.08;;;;;;;;;;5909826;28;20078;-77
2024/02/03 00:23:22;;;;;;;6.82;5.13;;;;;;;;;;5909356;28;20554;-77
2024/02/03 00:26:13;;;;;;;5.28;3.95;;;;;;;;;;5924139;28;20407;-78
2024/02/03 00:29:04;;;;;;;8.43;4.80;;;;;;;;;;5907639;28;20414;-77
2024/02/03 00:31:54;;;;;;;10.82;4.72;;;;;;;;;;5924589;28;20067;-78
2024/02/03 00:34:46;;;;;;;6.18;3.63;;;;;;;;;;5924058;28;20114;-78
2024/02/03 00:37:38;;;;;;;6.80;3.55;;;;;;;;;;5907427;28;20052;-77
2024/02/03 00:40:28;;;;;;;4.07;3.00;;;;;;;;;;5924124;28;20052;-78
2024/02/03 00:43:20;;;;;;;4.38;3.50;;;;;;;;;;5908788;28;20048;-77
2024/02/03 00:46:11;;;;;;;3.70;3.33;;;;;;;;;;5908547;28;20044;-78
2024/02/03 00:49:02;;;;;;;6.05;3.47;;;;;;;;;;5908740;28;20045;-77
2024/02/03 00:51:54;;;;;;;4.75;3.13;;;;;;;;;;5924493;28;20712;-78
2024/02/03 00:54:45;;;;;;;6.43;3.15;;;;;;;;;;5923632;28;20134;-77
2024/02/03 00:57:36;;;;;;;4.82;3.72;;;;;;;;;;5923997;28;20044;-77
2024/02/03 01:00:27;;;;;;;6.03;3.13;;;;;;;;;;5907412;28;20956;-77
2024/02/03 01:03:19;;;;;;;7.45;4.30;;;;;;;;;;5901154;28;20126;-78
2024/02/03 01:06:10;;;;;;;5.65;4.03;;;;;;;;;;5906965;28;20052;-80
2024/02/03 01:09:01;;;;;;;3.78;2.88;;;;;;;;;;5907261;28;20137;-77
2024/02/03 01:11:52;;;;;;;4.43;3.80;;;;;;;;;;5924182;28;20512;-77
2024/02/03 01:14:43;;;;;;;5.30;3.85;;;;;;;;;;5926559;28;20040;-77
2024/02/03 01:17:36;;;;;;;4.15;3.05;;;;;;;;;;5928242;28;20446;-78
2024/02/03 01:20:27;;;;;;;6.53;4.85;;;;;;;;;;5912806;28;20581;-78
2024/02/03 01:23:18;;;;;;;9.27;4.32;;;;;;;;;;5911334;28;20051;-78
2024/02/03 01:26:09;;;;;;;15.82;3.30;;;;;;;;;;5912316;28;20040;-78
2024/02/03 01:29:00;;;;;;;5.28;3.28;;;;;;;;;;5928459;28;20051;-78
2024/02/03 01:31:51;;;;;;;5.07;4.30;;;;;;;;;;5927789;28;20044;-78
2024/02/03 01:34:42;;;;;;;6.07;2.58;;;;;;;;;;5912281;28;20075;-78
2024/02/03 01:37:33;;;;;;;11.48;4.90;;;;;;;;;;5912285;28;20040;-78
2024/02/03 01:40:23;;;;;;;5.72;3.17;;;;;;;;;;5927581;28;20072;-78
2024/02/03 01:43:14;;;;;;;3.15;2.85;;;;;;;;;;5927476;28;20412;-78
2024/02/03 01:46:05;;;;;;;12.25;4.72;;;;;;;;;;5911931;28;20386;-77
2024/02/03 01:48:56;;;;;;;6.90;4.22;;;;;;;;;;5927854;28;20059;-78
2024/02/03 01:51:48;;;;;;;4.80;4.30;;;;;;;;;;5910439;28;20456;-78
2024/02/03 01:54:43;;;;;;;8.57;3.60;;;;;;;;;;5910595;28;20182;-77
2024/02/03 01:57:38;;;;;;;4.18;2.75;;;;;;;;;;5910404;28;20443;-77
2024/02/03 02:00:30;;;;;;;5.38;4.00;;;;;;;;;;5910394;28;20049;-78
2024/02/03 02:03:21;;;;;;;8.48;4.20;;;;;;;;;;5910624;28;20048;-77
2024/02/03 02:06:12;;;;;;;34.00;3.92;;;;;;;;;;5926959;28;20098;-77
2024/02/03 02:09:03;;;;;;;7.85;4.70;;;;;;;;;;5911670;28;20041;-78
2024/02/03 02:11:56;;;;;;;9.73;4.60;;;;;;;;;;5927442;28;20048;-78
2024/02/03 02:14:48;;;;;;;4.25;3.67;;;;;;;;;;5926620;28;20120;-78
2024/02/03 02:17:39;;;;;;;6.38;5.32;;;;;;;;;;5926560;28;20443;-77
2024/02/03 02:20:29;;;;;;;8.10;4.20;;;;;;;;;;5911321;28;20049;-77
2024/02/03 02:23:20;;;;;;;9.05;4.10;;;;;;;;;;5909747;28;20090;-77
2024/02/03 02:26:11;;;;;;;6.68;3.58;;;;;;;;;;5910823;28;20048;-77
2024/02/03 02:29:02;;;;;;;16.77;3.70;;;;;;;;;;5926773;28;20052;-77
2024/02/03 02:31:53;;;;;;;3.67;3.10;;;;;;;;;;5910023;28;20056;-77
2024/02/03 02:34:44;;;;;;;4.85;3.83;;;;;;;;;;5926359;28;20037;-77
2024/02/03 02:37:35;;;;;;;7.65;4.93;;;;;;;;;;5910996;28;20071;-77
2024/02/03 02:40:26;;;;;;;4.07;3.13;;;;;;;;;;5926072;28;20059;-77
2024/02/03 02:43:17;;;;;;;4.55;3.65;;;;;;;;;;5926220;28;20060;-77
2024/02/03 02:46:08;;;;;;;8.88;2.80;;;;;;;;;;5909481;28;20491;-78
2024/02/03 02:48:58;;;;;;;4.35;3.95;;;;;;;;;;5926638;28;20048;-77
2024/02/03 02:51:49;;;;;;;13.55;4.22;;;;;;;;;;5925972;28;20064;-78
2024/02/03 02:54:40;;;;;;;7.75;3.80;;;;;;;;;;5909149;28;20044;-78
2024/02/03 02:57:31;;;;;;;3.75;3.10;;;;;;;;;;5910673;28;20137;-79
2024/02/03 03:00:22;;;;;;;2.25;2.00;;;;;;;;;;5909051;28;20049;-78
2024/02/03 03:03:13;;;;;;;4.15;2.78;;;;;;;;;;5909152;28;20037;-77
2024/02/03 03:06:04;;;;;;;4.53;2.67;;;;;;;;;;5925939;28;20410;-77
2024/02/03 03:08:55;;;;;;;4.25;3.22;;;;;;;;;;5926435;28;20060;-78
2024/02/03 03:11:46;;;;;;;4.47;3.40;;;;;;;;;;5925584;28;20390;-78
2024/02/03 03:14:36;;;;;;;3.20;2.90;;;;;;;;;;5909072;28;20041;-78
2024/02/03 03:17:27;;;;;;;6.70;3.55;;;;;;;;;;5908663;28;20127;-78
2024/02/03 03:20:18;;;;;;;3.47;2.90;;;;;;;;;;5908548;28;20056;-77
2024/02/03 03:23:09;;;;;;;4.72;2.80;;;;;;;;;;5925082;28;20048;-78
2024/02/03 03:26:00;;;;;;;3.03;2.40;;;;;;;;;;5910412;28;20055;-77
2024/02/03 03:28:51;;;;;;;6.35;3.80;;;;;;;;;;5908800;28;20055;-78
2024/02/03 03:31:42;;;;;;;2.55;2.15;;;;;;;;;;5908087;28;20048;-77
2024/02/03 03:34:33;;;;;;;3.30;2.67;;;;;;;;;;5925076;28;20047;-78
2024/02/03 03:37:24;;;;;;;3.97;3.28;;;;;;;;;;5907566;28;20045;-78
2024/02/03 03:40:15;;;;;;;7.18;3.53;;;;;;;;;;5924886;28;20056;-78
2024/02/03 03:43:06;;;;;;;3.00;2.70;;;;;;;;;;5909408;28;20048;-77
2024/02/03 03:45:57;;;;;;;6.07;4.05;;;;;;;;;;5908577;28;20056;-77
2024/02/03 03:48:48;;;;;;;2.28;2.08;;;;;;;;;;5924796;28;20047;-78
2024/02/03 03:51:39;;;;;;;3.45;2.40;;;;;;;;;;5924765;28;20410;-77
2024/02/03 03:54:30;;;;;;;8.27;3.42;;;;;;;;;;5908226;28;20044;-77
2024/02/03 03:57:21;;;;;;;5.55;2.80;;;;;;;;;;5909199;28;20135;-77
2024/02/03 04:00:14;;;;;;;6.47;3.30;;;;;;;;;;5908836;28;20048;-78
2024/02/03 04:03:05;;;;;;;4.47;2.85;;;;;;;;;;5909096;28;20052;-78
2024/02/03 04:05:56;;;;;;;5.20;3.63;;;;;;;;;;5924807;28;20550;-77
2024/02/03 04:08:46;;;;;;;4.75;3.47;;;;;;;;;;5924355;28;20049;-77
2024/02/03 04:11:38;;;;;;;3.17;2.88;;;;;;;;;;5924245;28;20047;-77
2024/02/03 04:14:29;;;;;;;3.25;2.67;;;;;;;;;;5924258;28;20517;-77
2024/02/03 04:17:20;;;;;;;3.30;2.45;;;;;;;;;;5924269;28;20477;-77
2024/02/03 04:20:11;;;;;;;3.35;2.63;;;;;;;;;;5907770;28;20048;-78
2024/02/03 04:23:02;;;;;;;3.05;2.67;;;;;;;;;;5924163;28;20414;-77
2024/02/03 04:25:53;;;;;;;4.15;3.20;;;;;;;;;;5924638;28;20052;-77
2024/02/03 04:28:44;;;;;;;1.95;1.77;;;;;;;;;;5907391;28;20055;-78
2024/02/03 04:31:41;;;;;;;9.38;2.17;;;;;;;;;;5907800;28;20406;-78
2024/02/03 04:34:32;;;;;;;3.08;2.10;;;;;;;;;;5923971;28;20048;-78
2024/02/03 04:37:23;;;;;;;1.85;1.70;;;;;;;;;;5923760;28;20082;-77
2024/02/03 04:40:14;;;;;;;2.13;1.77;;;;;;;;;;5908572;28;20406;-77
2024/02/03 04:43:05;;;;;;;1.98;1.63;;;;;;;;;;5907479;28;20041;-77
2024/02/03 04:45:55;;;;;;;3.55;2.08;;;;;;;;;;5907815;28;20040;-78
2024/02/03 04:48:47;;;;;;;5.72;1.95;;;;;;;;;;5910584;28;20083;-78
2024/02/03 04:51:39;;;;;;;2.50;1.52;;;;;;;;;;5928762;28;20101;-77
2024/02/03 04:54:29;;;;;;;0.98;0.98;;;;;;;;;;5912086;28;20049;-77
2024/02/03 04:57:20;;;;;;;1.90;1.30;;;;;;;;;;5911649;28;20416;-78
2024/02/03 05:00:13;;;;;;;6.93;2.30;;;;;;;;;;5911700;28;20067;-77
2024/02/03 05:03:03;;;;;;;0.73;0.73;;;;;;;;;;5911819;28;20056;-77
2024/02/03 05:05:54;;;;;;;1.65;1.00;;;;;;;;;;5928750;28;20546;-77
2024/02/03 05:08:45;;;;;;;1.52;1.42;;;;;;;;;;5911671;28;20041;-78
2024/02/03 05:11:39;;;;;;;6.35;2.20;;;;;;;;;;5911611;28;20417;-77
2024/02/03 05:14:30;;;;;;;1.52;1.17;;;;;;;;;;5911587;28;20051;-77
2024/02/03 05:17:20;;;;;;;0.80;0.80;;;;;;;;;;5927947;28;20059;-77
2024/02/03 05:20:11;;;;;;;2.72;1.40;;;;;;;;;;5912631;28;20044;-78
2024/02/03 05:23:02;;;;;;;1.42;1.30;;;;;;;;;;5912667;28;20047;-77
2024/02/03 05:25:53;;;;;;;1.55;1.38;;;;;;;;;;5911503;28;20048;-78
2024/02/03 05:28:43;;;;;;;3.42;1.42;;;;;;;;;;5912426;28;20041;-78
2024/02/03 05:31:34;;;;;;;6.05;2.42;;;;;;;;;;5912316;28;20051;-77
2024/02/03 05:34:25;;;;;;;1.48;1.38;;;;;;;;;;5927776;28;20044;-78
2024/02/03 05:37:16;;;;;;;1.83;1.67;;;;;;;;;;5912128;28;20048;-78
2024/02/03 05:40:08;;;;;;;2.13;1.88;;;;;;;;;;5912168;28;20048;-78
2024/02/03 05:42:59;;;;;;;4.35;3.22;;;;;;;;;;5912604;28;20074;-78
2024/02/03 05:45:50;;;;;;;2.47;1.92;;;;;;;;;;5927332;28;20414;-78
2024/02/03 05:48:41;;;;;;;3.58;3.08;;;;;;;;;;5910801;28;20048;-78
2024/02/03 05:51:32;;;;;;;4.72;2.92;;;;;;;;;;5912111;28;20102;-78
2024/02/03 05:54:23;;;;;;;2.58;1.63;;;;;;;;;;5927538;28;20410;-78
2024/02/03 05:57:14;;;;;;;3.72;2.65;;;;;;;;;;5927079;28;20213;-78
2024/02/03 06:00:07;;;;;;;2.78;2.05;;;;;;;;;;5910964;28;20052;-78
2024/02/03 06:02:58;;;;;;;3.55;2.03;;;;;;;;;;5911113;28;20048;-79
2024/02/03 06:05:50;;;;;;;4.68;3.13;;;;;;;;;;5894219;28;20052;-80
2024/02/03 06:09:00;;;;;;;5.07;2.85;;;;;;;;;;5910609;28;20127;-78
2024/02/03 06:11:51;;;;;;;4.53;2.63;;;;;;;;;;5926952;28;20044;-77
2024/02/03 06:14:43;;;;;;;4.90;2.72;;;;;;;;;;5926894;28;20055;-78
2024/02/03 06:17:35;;;;;;;6.75;3.97;;;;;;;;;;5911494;28;20044;-78
2024/02/03 06:20:25;;;;;;;10.38;3.90;;;;;;;;;;5927058;28;20554;-78
2024/02/03 06:23:16;;;;;;;3.95;3.42;;;;;;;;;;5926799;28;20074;-77
2024/02/03 06:26:09;;;;;;;4.00;3.28;;;;;;;;;;5910239;28;20048;-78
2024/02/03 06:29:00;;;;;;;5.20;3.67;;;;;;;;;;5927030;28;20056;-78
2024/02/03 06:31:51;;;;;;;8.50;3.35;;;;;;;;;;5911217;28;20036;-78
2024/02/03 06:34:42;;;;;;;4.22;2.55;;;;;;;;;;5926427;28;20060;-79
2024/02/03 06:37:33;;;;;;;5.88;4.30;;;;;;;;;;5926300;28;20044;-78
2024/02/03 06:40:23;;;;;;;7.90;3.83;;;;;;;;;;5926455;28;20387;-79
2024/02/03 06:43:14;;;;;;;3.00;2.72;;;;;;;;;;5926402;28;20143;-78
2024/02/03 06:46:06;;;;;;;5.55;3.63;;;;;;;;;;5909545;28;20041;-79
2024/02/03 06:48:57;;;;;;;2.03;1.92;;;;;;;;;;5911424;28;20044;-79
2024/02/03 06:51:47;;;;;;;4.93;3.90;;;;;;;;;;5910509;28;20060;-78
2024/02/03 06:54:38;;;;;;;3.45;1.70;;;;;;;;;;5910527;28;20063;-78
2024/02/03 06:57:29;;;;;;;5.10;2.28;;;;;;;;;;5926063;28;20040;-79
2024/02/03 07:00:20;;;;;;;2.58;2.35;;;;;;;;;;5909142;28;20565;-79
2024/02/03 07:03:12;;;;;;;2.38;2.08;;;;;;;;;;5910450;28;20053;-78
2024/02/03 07:06:03;;;;;;;4.97;1.73;;;;;;;;;;5925848;28;20037;-78
2024/02/03 07:08:54;;;;;;;4.07;2.72;;;;;;;;;;5926355;28;20045;-78
2024/02/03 07:11:45;;;;;;;2.00;1.80;;;;;;;;;;5924525;28;20044;-78
2024/02/03 07:14:53;;;;;;;1.33;1.17;;;;;;;;;;5923770;28;20040;-79
2024/02/03 07:17:43;;;;;;;3.08;2.50;;;;;;;;;;5925432;28;20044;-78
2024/02/03 07:20:35;;;;;;;3.42;2.58;;;;;;;;;;5908803;28;20045;-78
2024/02/03 07:23:25;;;;;;;1.83;1.27;;;;;;;;;;5910072;28;20045;-79
2024/02/03 07:26:16;;;;;;;1.50;1.35;;;;;;;;;;5925219;28;20124;-79
2024/02/03 07:29:07;;;;;;;2.40;1.50;;;;;;;;;;5925334;28;20052;-78
2024/02/03 07:32:00;;;;;;;2.85;2.03;;;;;;;;;;5909004;28;20048;-79
2024/02/03 07:34:51;;;;;;;2.03;1.73;;;;;;;;;;5925379;28;20086;-79
2024/02/03 07:37:42;;;;;;;3.15;1.75;;;;;;;;;;5924850;28;20051;-79
2024/02/03 07:40:33;;;;;;;3.33;1.38;;;;;;;;;;5925018;28;20037;-79
2024/02/03 07:43:24;;;;;;;3.42;1.70;;;;;;;;;;5909679;28;20391;-79
2024/02/03 07:46:14;;;;;;;2.22;2.00;;;;;;;;;;5907906;28;20529;-78
2024/02/03 07:49:05;;;;;;;4.93;2.15;;;;;;;;;;5924835;28;20051;-77
2024/02/03 07:51:56;;;;;;;1.90;1.60;;;;;;;;;;5909758;28;20041;-80
2024/02/03 07:54:51;;;;;;;1.17;1.10;;;;;;;;;;5908278;28;20052;-78
2024/02/03 07:57:42;;;;;;;2.53;1.90;;;;;;;;;;5924354;28;20364;-79
2024/02/03 08:00:35;;;;;;;2.53;1.95;;;;;;;;;;5909193;28;20048;-79
2024/02/03 08:03:26;;;;;;;2.40;1.88;;;;;;;;;;5909380;28;20046;-79
2024/02/03 08:06:17;;;;;;;3.50;2.55;;;;;;;;;;5924026;28;20044;-80
2024/02/03 08:09:08;;;;;;;2.65;1.75;;;;;;;;;;5907850;28;20048;-79
2024/02/03 08:11:59;;;;;;;2.42;2.22;;;;;;;;;;5924813;28;20060;-79
2024/02/03 08:14:50;;;;;;;2.85;1.92;;;;;;;;;;5924572;28;20072;-79
2024/02/03 08:17:41;;;;;;;3.72;2.22;;;;;;;;;;5924721;28;20521;-79
2024/02/03 08:20:32;;;;;;;6.20;1.58;;;;;;;;;;5907745;28;20044;-79
2024/02/03 08:23:23;;;;;;;3.97;2.70;;;;;;;;;;5907210;28;20051;-80
2024/02/03 08:26:14;;;;;;;4.80;2.67;;;;;;;;;;5924276;28;20738;-79
2024/02/03 08:29:05;;;;;;;8.32;2.60;;;;;;;;;;5908982;28;20054;-79
2024/02/03 08:31:56;;;;;;;2.58;1.73;;;;;;;;;;5924607;28;20048;-79
2024/02/03 08:34:47;;;;;;;5.88;3.00;;;;;;;;;;5924047;28;20040;-79
2024/02/03 08:37:41;;;;;;;7.00;3.53;;;;;;;;;;5907085;28;20410;-79
2024/02/03 08:40:32;;;;;;;2.63;2.08;;;;;;;;;;5924037;28;20048;-79
2024/02/03 08:43:22;;;;;;;12.57;3.08;;;;;;;;;;5908780;28;20465;-79
2024/02/03 08:46:13;;;;;;;1.80;1.70;;;;;;;;;;5907232;28;20037;-78
2024/02/03 08:49:04;;;;;;;2.08;1.95;;;;;;;;;;5924713;28;20194;-78
2024/02/03 08:51:55;;;;;;;3.72;3.08;;;;;;;;;;5924208;28;20068;-80
2024/02/03 08:54:46;;;;;;;2.22;2.03;;;;;;;;;;5924161;28;20044;-79
2024/02/03 08:57:37;;;;;;;2.20;1.90;;;;;;;;;;5923917;28;20042;-79
2024/02/03 09:00:28;;;;;;;1.60;1.50;;;;;;;;;;5908787;28;20278;-79
2024/02/03 09:03:19;;;;;;;1.73;1.63;;;;;;;;;;5924112;28;20129;-80
2024/02/03 09:06:11;;;;;;;4.55;3.00;;;;;;;;;;5907065;28;20052;-79
2024/02/03 09:09:05;;;;;;;2.95;2.42;;;;;;;;;;5923624;28;20131;-79
2024/02/03 09:11:55;;;;;;;4.30;2.90;;;;;;;;;;5923755;28;20063;-79
2024/02/03 09:14:46;;;;;;;4.28;2.97;;;;;;;;;;5908422;28;20410;-80
2024/02/03 09:17:37;;;;;;;2.92;2.42;;;;;;;;;;5923567;28;20075;-79
2024/02/03 09:20:28;;;;;;;4.75;3.97;;;;;;;;;;5923974;28;20047;-79
2024/02/03 09:23:19;;;;;;;4.22;3.45;;;;;;;;;;5923541;28;20056;-79
2024/02/03 09:26:10;;;;;;;7.45;5.53;;;;;;;;;;5908205;28;20044;-79
2024/02/03 09:29:01;;;;;;;5.55;4.18;;;;;;;;;;5907009;28;20044;-78
2024/02/03 09:31:52;;;;;;;4.50;4.05;;;;;;;;;;5923851;28;20410;-79
2024/02/03 09:34:49;;;;;;;4.47;4.03;;;;;;;;;;5924504;28;20090;-79
2024/02/03 09:37:46;;;;;;;5.50;4.97;;;;;;;;;;5910731;28;20135;-79
2024/02/03 09:40:40;;;;;;;5.22;4.32;;;;;;;;;;5927066;28;20040;-79
2024/02/03 09:43:31;;;;;;;4.30;3.90;;;;;;;;;;5912419;28;20040;-79
2024/02/03 09:46:22;;;;;;;6.13;4.38;;;;;;;;;;5927728;28;20052;-78
2024/02/03 09:49:13;;;;;;;11.27;3.67;;;;;;;;;;5927524;28;20049;-80
2024/02/03 09:52:05;;;;;;;8.30;4.32;;;;;;;;;;5910658;28;20040;-79
2024/02/03 09:54:57;;;;;;;3.97;3.45;;;;;;;;;;5927990;28;20583;-80
2024/02/03 09:57:48;;;;;;;5.55;4.75;;;;;;;;;;5927151;28;20123;-80
2024/02/03 10:00:39;;;;;;;6.53;4.97;;;;;;;;;;5927396;28;20499;-79
2024/02/03 10:03:33;;;;;;;7.13;4.60;;;;;;;;;;5910715;28;20060;-80
2024/02/03 10:06:24;;;;;;;6.32;4.72;;;;;;;;;;5911517;28;20044;-80
2024/02/03 10:09:25;;;;;;;8.13;5.13;;;;;;;;;;5910371;28;20052;-78
2024/02/03 10:12:18;;;;;;;12.35;7.97;;;;;;;;;;5910034;28;20052;-79
2024/02/03 10:15:12;;;;;;;7.47;6.65;;;;;;;;;;5926557;28;20093;-79
2024/02/03 10:18:08;;;;;;;9.45;5.72;;;;;;;;;;5910289;28;20114;-79
2024/02/03 10:21:02;;;;;;;8.35;5.28;;;;;;;;;;5911938;28;20056;-79
2024/02/03 10:23:53;;;;;;;4.88;4.15;;;;;;;;;;5910222;28;20555;-79
2024/02/03 10:26:44;;;;;;;5.65;5.10;;;;;;;;;;5926618;28;20044;-79
2024/02/03 10:29:35;;;;;;;6.75;5.70;;;;;;;;;;5911601;28;20040;-79
2024/02/03 10:32:25;;;;;;;5.20;4.40;;;;;;;;;;5909567;28;20056;-79
2024/02/03 10:35:16;;;;;;;9.98;6.57;;;;;;;;;;5926507;28;20194;-79
2024/02/03 10:38:07;;;;;;;10.00;6.30;;;;;;;;;;5926298;28;20048;-79
2024/02/03 10:41:00;;;;;;;7.18;5.65;;;;;;;;;;5927061;28;20501;-79
2024/02/03 10:43:55;;;;;;;7.00;5.55;;;;;;;;;;5926531;28;20052;-79
2024/02/03 10:46:46;;;;;;;8.00;4.30;;;;;;;;;;5909450;28;20040;-79
2024/02/03 10:49:43;;;;;;;6.53;4.78;;;;;;;;;;5926381;28;20513;-80
2024/02/03 10:52:34;;;;;;;10.27;6.68;;;;;;;;;;5926005;28;20384;-80
2024/02/03 10:55:26;;;;;;;10.93;6.28;;;;;;;;;;5926101;28;20048;-80
2024/02/03 10:58:17;;;;;;;6.22;5.07;;;;;;;;;;5925797;28;20048;-79
2024/02/03 11:01:13;;;;;;;7.72;5.80;;;;;;;;;;5925323;28;20410;-79
2024/02/03 11:04:04;;;;;;;5.75;5.18;;;;;;;;;;5910946;28;20055;-80
2024/02/03 11:06:58;;;;;;;12.05;6.22;;;;;;;;;;5926352;28;20121;-80
2024/02/03 11:09:59;;;;;;;10.90;5.93;;;;;;;;;;5909412;28;20532;-80
2024/02/03 11:12:50;;;;;;;12.13;6.70;;;;;;;;;;5893344;28;20118;-80
2024/02/03 11:15:43;;;;;;;6.93;4.72;;;;;;;;;;5925611;28;20052;-81
2024/02/03 11:18:40;;;;;;;11.40;8.75;;;;;;;;;;5910342;28;20417;-80
2024/02/03 11:21:31;;;;;;;9.52;6.43;;;;;;;;;;5925766;28;20125;-81
2024/02/03 11:24:23;;;;;;;20.17;12.75;;;;;;;;;;5910282;28;20070;-81
2024/02/03 11:27:14;;;;;;;12.15;9.48;;;;;;;;;;5908722;28;20391;-80
2024/02/03 11:30:06;;;;;;;12.90;7.75;;;;;;;;;;5909852;28;20122;-81
2024/02/03 11:32:57;;;;;;;9.90;4.95;;;;;;;;;;5925871;28;20060;-81
2024/02/03 11:35:59;;;;;;;9.48;5.07;;;;;;;;;;5925061;28;20040;-82
2024/02/03 11:38:51;;;;;;;8.65;7.57;;;;;;;;;;5925310;28;20044;-81
2024/02/03 11:41:42;;;;;;;10.85;6.10;;;;;;;;;;5924845;28;20410;-81
2024/02/03 11:44:44;;;;;;;14.10;6.00;;;;;;;;;;5925356;28;20047;-82
2024/02/03 11:47:35;;;;;;;7.93;3.70;;;;;;;;;;5925105;28;20071;-81
2024/02/03 11:50:27;;;;;;;11.90;9.10;;;;;;;;;;5908387;28;20044;-82
2024/02/03 11:53:26;;;;;;;7.88;4.97;;;;;;;;;;5925222;28;20510;-82
2024/02/03 11:56:18;;;;;;;9.95;7.28;;;;;;;;;;5923712;28;20048;-83
2024/02/03 11:59:09;;;;;;;8.13;5.88;;;;;;;;;;5908727;28;20048;-82
2024/02/03 12:02:04;;;;;;;7.93;6.25;;;;;;;;;;5924478;28;20127;-82
2024/02/03 12:04:55;;;;;;;7.65;5.47;;;;;;;;;;5917908;28;20052;-83
2024/02/03 12:07:45;;;;;;;9.95;6.47;;;;;;;;;;5907102;28;20041;-83
2024/02/03 12:10:36;;;;;;;7.25;4.50;;;;;;;;;;5908116;28;20513;-82
2024/02/03 12:13:36;;;;;;;17.38;9.35;;;;;;;;;;5908133;28;20044;-82
2024/02/03 12:16:27;;;;;;;5.22;4.53;;;;;;;;;;5907302;28;20049;-84
2024/02/03 12:19:19;;;;;;;6.90;4.43;;;;;;;;;;5908213;28;20051;-82
2024/02/03 12:22:10;;;;;;;10.05;4.28;;;;;;;;;;5909700;28;20049;-82
2024/02/03 12:25:01;;;;;;;9.75;4.80;;;;;;;;;;5908398;28;20048;-82
2024/02/03 12:27:53;;;;;;;9.55;5.93;;;;;;;;;;5908696;28;20040;-82
2024/02/03 12:30:54;;;;;;;31.85;10.20;;;;;;;;;;5907148;28;20051;-83
2024/02/03 12:33:45;;;;;;;11.02;5.95;;;;;;;;;;5907201;28;20418;-82
2024/02/03 12:36:37;;;;;;;4.53;4.15;;;;;;;;;;5892424;28;20083;-82
2024/02/03 12:39:27;;;;;;;7.25;5.78;;;;;;;;;;5907801;28;20059;-83
2024/02/03 12:42:18;;;;;;;30.52;15.48;;;;;;;;;;5903298;28;20171;-83
2024/02/03 12:45:09;;;;;;;6.85;6.00;;;;;;;;;;5911348;28;20049;-82
2024/02/03 12:48:00;;;;;;;4.63;3.30;;;;;;;;;;5909519;28;20044;-82
2024/02/03 12:50:56;;;;;;;7.63;4.60;;;;;;;;;;5906939;28;20407;-82
2024/02/03 12:53:47;;;;;;;11.80;7.45;;;;;;;;;;5918193;28;20181;-82
2024/02/03 12:56:38;;;;;;;7.40;6.60;;;;;;;;;;5924410;28;20041;-83
2024/02/03 12:59:29;;;;;;;9.38;5.55;;;;;;;;;;5906981;28;20509;-83
2024/02/03 13:02:20;;;;;;;5.63;3.80;;;;;;;;;;5924323;28;20107;-83
2024/02/03 13:05:10;;;;;;;5.97;2.90;;;;;;;;;;5923965;28;20411;-83
2024/02/03 13:08:05;;;;;;;3.90;3.08;;;;;;;;;;5919779;28;20044;-83
2024/02/03 13:10:56;;;;;;;4.25;2.80;;;;;;;;;;5903949;28;20072;-82
2024/02/03 13:13:46;;;;;;;12.05;6.28;;;;;;;;;;5908210;28;20413;-82
2024/02/03 13:16:37;;;;;;;7.80;4.38;;;;;;;;;;5909757;28;20048;-82
2024/02/03 13:19:28;;;;;;;2.63;2.42;;;;;;;;;;5893182;28;20087;-82
2024/02/03 13:22:19;;;;;;;3.00;1.88;;;;;;;;;;5910962;28;20044;-82
2024/02/03 13:25:10;;;;;;;4.43;2.47;;;;;;;;;;5910291;28;20429;-82
2024/02/03 13:28:02;;;;;;;3.90;2.13;;;;;;;;;;5912501;28;20060;-79
2024/02/03 13:30:53;;;;;;;3.63;1.95;;;;;;;;;;5912437;28;20048;-84
2024/02/03 13:33:44;;;;;;;3.88;2.42;;;;;;;;;;5911669;28;20410;-82
2024/02/03 13:36:35;;;;;;;3.85;2.95;;;;;;;;;;5910458;28;20354;-83
2024/02/03 13:39:26;;;;;;;6.03;4.80;;;;;;;;;;5910523;28;20522;-82
2024/02/03 13:42:17;;;;;;;7.32;3.28;;;;;;;;;;5910245;28;20406;-82
2024/02/03 13:45:08;;;;;;;6.03;3.92;;;;;;;;;;5911287;28;20058;-84
2024/02/03 13:47:59;;;;;;;6.30;3.95;;;;;;;;;;5911129;28;20049;-83
2024/02/03 13:50:50;;;;;;;14.52;3.83;;;;;;;;;;5910527;28;20044;-83
2024/02/03 13:53:41;;;;;;;8.85;5.30;;;;;;;;;;5927393;28;20044;-83
2024/02/03 13:56:32;;;;;;;3.35;2.45;;;;;;;;;;5910448;28;20425;-83
2024/02/03 13:59:24;;;;;;;8.20;3.30;;;;;;;;;;5909927;28;20036;-84
2024/02/03 14:02:15;;;;;;;8.35;5.57;;;;;;;;;;5911251;28;20076;-83
2024/02/03 14:05:06;;;;;;;7.70;4.07;;;;;;;;;;5926244;28;20040;-83
2024/02/03 14:07:57;;;;;;;8.80;5.20;;;;;;;;;;5912080;28;20123;-84
2024/02/03 14:10:48;;;;;;;10.50;6.00;;;;;;;;;;5894158;28;20064;-83
2024/02/03 14:13:38;;;;;;;6.90;4.60;;;;;;;;;;5912396;28;20391;-84
2024/02/03 14:16:29;;;;;;;9.93;5.78;;;;;;;;;;5910451;28;20414;-83
2024/02/03 14:19:20;;;;;;;7.03;5.45;;;;;;;;;;5911026;28;20048;-84
2024/02/03 14:22:11;;;;;;;2.47;1.75;;;;;;;;;;5911442;28;20517;-84
2024/02/03 14:25:02;;;;;;;10.30;4.22;;;;;;;;;;5909346;28;20769;-83
2024/02/03 14:27:53;;;;;;;5.47;3.25;;;;;;;;;;5912254;28;20122;-83
2024/02/03 14:30:44;;;;;;;1.98;1.77;;;;;;;;;;5909433;28;20052;-83
2024/02/03 14:33:35;;;;;;;7.13;2.85;;;;;;;;;;5909053;28;20037;-83
2024/02/03 14:36:28;;;;;;;4.65;3.05;;;;;;;;;;5909986;28;20044;-83
2024/02/03 14:39:19;;;;;;;3.65;3.15;;;;;;;;;;5910204;28;20521;-83
2024/02/03 14:42:10;;;;;;;4.25;3.22;;;;;;;;;;5909982;28;20057;-83
2024/02/03 14:45:01;;;;;;;2.10;1.77;;;;;;;;;;5909778;28;20052;-83
2024/02/03 14:47:51;;;;;;;1.33;1.23;;;;;;;;;;5910455;28;20051;-83
2024/02/03 14:50:42;;;;;;;1.38;1.27;;;;;;;;;;5911131;28;20426;-83
2024/02/03 14:53:33;;;;;;;1.55;1.42;;;;;;;;;;5910186;28;20059;-83
2024/02/03 14:56:24;;;;;;;7.00;1.50;;;;;;;;;;5909709;28;20438;-86
2024/02/03 14:59:15;;;;;;;5.15;2.28;;;;;;;;;;5926613;28;20057;-85
2024/02/03 15:02:06;;;;;;;3.05;2.22;;;;;;;;;;5909804;28;20044;-84
2024/02/03 15:04:57;;;;;;;2.28;2.00;;;;;;;;;;5911015;28;20052;-83
2024/02/03 15:07:48;;;;;;;2.90;1.80;;;;;;;;;;5909474;28;20336;-83
2024/02/03 15:10:39;;;;;;;1.80;1.10;;;;;;;;;;5909004;28;20696;-83
2024/02/03 15:13:30;;;;;;;1.27;1.15;;;;;;;;;;5908265;28;20044;-83
2024/02/03 15:16:21;;;;;;;1.55;1.20;;;;;;;;;;5909655;28;20053;-83
2024/02/03 15:19:12;;;;;;;6.68;1.67;;;;;;;;;;5908593;28;20415;-83
2024/02/03 15:22:03;;;;;;;4.55;2.90;;;;;;;;;;5908844;28;20460;-82
2024/02/03 15:24:53;;;;;;;4.88;1.83;;;;;;;;;;5909307;28;20410;-82
2024/02/03 15:27:44;;;;;;;3.30;2.70;;;;;;;;;;5924534;28;20041;-83
2024/02/03 15:30:35;;;;;;;1.98;1.73;;;;;;;;;;5908637;28;20047;-83
2024/02/03 15:33:29;;;;;;;2.80;1.90;;;;;;;;;;5924434;28;20044;-82
2024/02/03 15:36:25;;;;;;;3.65;1.83;;;;;;;;;;5908599;28;20406;-84
2024/02/03 15:39:16;;;;;;;1.27;1.17;;;;;;;;;;5909523;28;20707;-84
2024/02/03 15:42:07;;;;;;;1.73;0.93;;;;;;;;;;5908414;28;20498;-81
2024/02/03 15:44:57;;;;;;;1.30;1.20;;;;;;;;;;5910083;28;20052;-83
2024/02/03 15:47:48;;;;;;;1.40;1.30;;;;;;;;;;5908271;28;20037;-82
2024/02/03 15:50:39;;;;;;;6.15;3.25;;;;;;;;;;5908197;28;20138;-82
2024/02/03 15:53:30;;;;;;;1.50;1.40;;;;;;;;;;5909610;28;20048;-82
2024/02/03 15:56:21;;;;;;;5.18;3.22;;;;;;;;;;5909446;28;20059;-82
2024/02/03 15:59:13;;;;;;;10.90;2.95;;;;;;;;;;5909311;28;20493;-82
2024/02/03 16:02:06;;;;;;;6.13;4.43;;;;;;;;;;5891796;28;20310;-83
2024/02/03 16:04:57;;;;;;;7.88;3.92;;;;;;;;;;5908629;28;20608;-82
2024/02/03 16:07:48;;;;;;;12.68;7.07;;;;;;;;;;5909250;28;20497;-82
2024/02/03 16:10:38;;;;;;;10.70;3.70;;;;;;;;;;5891182;28;20050;-83
2024/02/03 16:13:29;;;;;;;5.00;2.80;;;;;;;;;;5907490;28;20047;-83
2024/02/03 16:16:20;;;;;;;0.98;0.98;;;;;;;;;;5909011;28;20052;-83
2024/02/03 16:19:11;;;;;;;12.77;6.70;;;;;;;;;;5907566;28;20486;-82
2024/02/03 16:22:02;;;;;;;8.55;5.00;;;;;;;;;;5907524;28;20162;-81
2024/02/03 16:24:56;;;;;;;7.25;5.47;;;;;;;;;;5907955;28;20079;-81
2024/02/03 16:27:47;;;;;;;11.93;9.05;;;;;;;;;;5908960;28;20502;-84
2024/02/03 16:30:38;;;;;;;5.65;4.78;;;;;;;;;;5907469;28;20502;-81
2024/02/03 16:33:28;;;;;;;8.65;4.00;;;;;;;;;;5907561;28;20048;-81
2024/02/03 16:36:21;;;;;;;6.70;4.07;;;;;;;;;;5907598;28;20075;-82
2024/02/03 16:39:11;;;;;;;8.63;4.78;;;;;;;;;;5907419;28;20044;-82
2024/02/03 16:42:02;;;;;;;5.82;3.60;;;;;;;;;;5907508;28;20044;-82
2024/02/03 16:44:53;;;;;;;6.20;3.95;;;;;;;;;;5924380;28;20048;-83
2024/02/03 16:47:44;;;;;;;6.18;4.95;;;;;;;;;;5907160;28;20037;-83
2024/02/03 16:50:35;;;;;;;4.70;4.15;;;;;;;;;;5907510;28;20045;-84
2024/02/03 16:53:25;;;;;;;6.13;3.55;;;;;;;;;;5908571;28;20076;-83
2024/02/03 16:56:16;;;;;;;5.05;4.20;;;;;;;;;;5923840;28;20423;-82
2024/02/03 16:59:07;;;;;;;12.40;5.85;;;;;;;;;;5907192;28;20078;-83
2024/02/03 17:01:58;;;;;;;5.43;3.97;;;;;;;;;;5907710;28;20049;-82
2024/02/03 17:04:49;;;;;;;7.57;3.72;;;;;;;;;;5907256;28;20051;-84